Meath Environmental Platform

Observations for Trim Market St

Time AQI Temp °C Hum % Pres Pa CO μg/m³ H₂S μg/m³ NO μg/m³ NO₂ μg/m³ O₃ μg/m³ SO₂ μg/m³ PM1 μg/m³ PM2.5 μg/m³ PM10 μg/m³
Friday 14 August 2026
09:38 2 24.3 56 57,794 0 0 1.45 6.23 45.36 0 1.43 4.24 6.1
09:37 2 24.3 56 57,796 0 0 1.28 8.5 48.89 0 0.71 3.22 3.97
09:36 2 24.4 56 57,794 0 0 1.25 4.86 46.75 0 0.71 2.21 2.55
09:30 2 24.2 57 57,781 0 0 2.87 11.51 36.09 0 2.14 4.19 5.41
09:26 2 24.1 57 57,756 0.07 0 2.34 6.07 30.27 0 0 2.64 4.02
09:25 2 24 58 57,751 0.06 0 2.99 7.74 45.6 0 0.71 3.13 4.73
09:24 2 24 58 57,745 0.33 0 2.8 11.69 26.36 0 2.14 4.63 6.13
09:23 2 24 58 57,735 0.15 0 2.66 10.39 41.95 0 1.43 3.62 4.74
09:22 2 23.9 58 57,726 0.24 0 2.52 12.14 30.97 0 1.43 3.11 4.04
09:21 2 23.9 58 57,716 0.06 0 1.9 10.56 31.5 0 1.43 3.6 4.75
09:20 2 23.8 59 57,702 0 0 1.24 5.1 45.01 0 1.43 4.09 5.44
09:19 2 23.7 59 57,690 0 0 1.38 6.38 52.25 0 0.71 3.08 4.06
09:18 2 23.7 59 57,676 0 0 1.58 8.47 46.64 0 0.71 3.07 4.07
09:17 2 23.6 59 57,662 0 0 1.45 7.33 51.12 0 1.43 3.06 4.08
09:16 2 23.5 60 57,649 0.02 0 1.43 9.78 37.5 0 0.71 3.04 4.77
09:15 2 23.4 60 57,632 0.04 0 1.88 9.51 45.44 0 0.71 3.04 4.09
09:14 2 23.4 60 57,621 0.27 0 3.39 9.57 42 0 2.14 4.03 5.47
09:13 2 23.3 60 57,608 0.04 0 3.72 7.22 53.62 0 1.43 3.03 4.78
09:09 2 23 61 57,562 0.17 0 3.51 16.3 29.63 0 2.85 5.49 8.89
09:06 2 22.9 61 57,516 0.01 0 3.2 11.64 34.72 0 3.56 5.46 7.53